Terminal Aerodrome Forecast
Issued by NWS Shreveport, LA

Home | Current Version | Previous Version | Text Only | Print | Product List | Glossary On
Versions: 1 2 3 4 5 6 7 8 9 10 11 12 13 14 15 16 17 18 19 20 21 22 23 24
000
FTUS44 KSHV 221139
TAFTYR
TAF
KTYR 221139Z 2212/2312 10010KT P6SM FEW013 OVC050
      TEMPO 2212/2215 BKN015
     FM221500 10008KT P6SM SCT025 BKN050 BKN250
      TEMPO 2215/2217 BKN025
     FM221800 11008KT P6SM BKN040
     FM230000 12007KT P6SM SCT040 SCT250
      TEMPO 2308/2312 BKN015=

USA.gov is the U.S. government's official web portal to all federal, state and local government web resources and services.